sensor_id;sensor_type;location;lat;lon;timestamp;pressure;altitude;pressure_sealevel;temperature;humidity
70200;BME280;57587;55.688;37.600;2023-11-21T00:01:33;98964.69;;;-4.22;49.61
70200;BME280;57587;55.688;37.600;2023-11-21T00:04:00;98967.28;;;-4.22;50.00
70200;BME280;57587;55.688;37.600;2023-11-21T00:06:28;98961.16;;;-4.21;49.85
70200;BME280;57587;55.688;37.600;2023-11-21T00:08:57;98961.22;;;-4.22;50.34
70200;BME280;57587;55.688;37.600;2023-11-21T00:11:24;98965.28;;;-4.18;50.02
70200;BME280;57587;55.688;37.600;2023-11-21T00:13:52;98960.63;;;-4.26;49.68
70200;BME280;57587;55.688;37.600;2023-11-21T00:16:19;98966.38;;;-4.21;50.04
70200;BME280;57587;55.688;37.600;2023-11-21T00:18:46;98968.03;;;-4.20;50.42
70200;BME280;57587;55.688;37.600;2023-11-21T00:21:14;98965.63;;;-4.23;50.15
70200;BME280;57587;55.688;37.600;2023-11-21T00:23:41;98969.69;;;-4.19;49.65
70200;BME280;57587;55.688;37.600;2023-11-21T00:26:08;98964.03;;;-4.12;49.25
70200;BME280;57587;55.688;37.600;2023-11-21T00:28:36;98968.56;;;-4.14;49.44
70200;BME280;57587;55.688;37.600;2023-11-21T00:31:04;98969.88;;;-4.09;49.76
70200;BME280;57587;55.688;37.600;2023-11-21T00:33:31;98968.84;;;-4.06;49.57
70200;BME280;57587;55.688;37.600;2023-11-21T00:35:59;98968.13;;;-4.08;48.91
70200;BME280;57587;55.688;37.600;2023-11-21T00:38:26;98968.97;;;-4.08;49.44
70200;BME280;57587;55.688;37.600;2023-11-21T00:40:54;98961.13;;;-4.08;49.20
70200;BME280;57587;55.688;37.600;2023-11-21T00:43:23;98960.09;;;-4.05;49.08
70200;BME280;57587;55.688;37.600;2023-11-21T00:45:51;98960.09;;;-4.05;49.42
70200;BME280;57587;55.688;37.600;2023-11-21T00:48:18;98958.41;;;-4.06;49.09
70200;BME280;57587;55.688;37.600;2023-11-21T00:50:47;98956.72;;;-4.07;49.25
70200;BME280;57587;55.688;37.600;2023-11-21T00:53:15;98957.56;;;-4.07;49.71
70200;BME280;57587;55.688;37.600;2023-11-21T00:55:42;98957.16;;;-4.13;49.51
70200;BME280;57587;55.688;37.600;2023-11-21T00:58:10;98959.97;;;-4.17;49.17
70200;BME280;57587;55.688;37.600;2023-11-21T01:00:37;98954.22;;;-4.09;49.16
70200;BME280;57587;55.688;37.600;2023-11-21T01:03:07;98964.25;;;-4.15;48.93
70200;BME280;57587;55.688;37.600;2023-11-21T01:05:35;98957.69;;;-4.08;49.37
70200;BME280;57587;55.688;37.600;2023-11-21T01:08:02;98963.53;;;-4.05;48.75
70200;BME280;57587;55.688;37.600;2023-11-21T01:10:29;98963.41;;;-4.03;48.86
70200;BME280;57587;55.688;37.600;2023-11-21T01:12:57;98972.41;;;-4.07;48.73
70200;BME280;57587;55.688;37.600;2023-11-21T01:15:24;98956.53;;;-4.17;49.12
70200;BME280;57587;55.688;37.600;2023-11-21T01:17:52;98958.63;;;-4.22;49.42
70200;BME280;57587;55.688;37.600;2023-11-21T01:20:19;98959.56;;;-4.23;49.17
70200;BME280;57587;55.688;37.600;2023-11-21T01:22:47;98962.19;;;-4.23;49.27
70200;BME280;57587;55.688;37.600;2023-11-21T01:25:16;98963.34;;;-4.14;48.81
70200;BME280;57587;55.688;37.600;2023-11-21T01:27:44;98956.75;;;-4.20;49.26
70200;BME280;57587;55.688;37.600;2023-11-21T01:30:12;98948.16;;;-4.22;49.44
70200;BME280;57587;55.688;37.600;2023-11-21T01:32:39;98958.53;;;-4.21;49.37
70200;BME280;57587;55.688;37.600;2023-11-21T01:35:09;98955.50;;;-4.14;49.38
70200;BME280;57587;55.688;37.600;2023-11-21T01:37:37;98963.41;;;-4.16;48.97
70200;BME280;57587;55.688;37.600;2023-11-21T01:40:06;98969.69;;;-4.19;49.54
70200;BME280;57587;55.688;37.600;2023-11-21T01:42:37;98958.84;;;-4.25;49.42
70200;BME280;57587;55.688;37.600;2023-11-21T01:45:04;98951.31;;;-4.30;49.45
70200;BME280;57587;55.688;37.600;2023-11-21T01:47:33;98966.78;;;-4.27;49.75
70200;BME280;57587;55.688;37.600;2023-11-21T01:50:02;98963.00;;;-4.23;49.42
70200;BME280;57587;55.688;37.600;2023-11-21T01:52:31;98958.31;;;-4.18;49.50
70200;BME280;57587;55.688;37.600;2023-11-21T01:54:59;98969.47;;;-4.15;49.38
70200;BME280;57587;55.688;37.600;2023-11-21T01:57:27;98963.00;;;-4.10;49.03
70200;BME280;57587;55.688;37.600;2023-11-21T01:59:56;98961.44;;;-4.12;49.02
70200;BME280;57587;55.688;37.600;2023-11-21T02:02:25;98967.69;;;-4.15;48.42
70200;BME280;57587;55.688;37.600;2023-11-21T02:04:52;98964.47;;;-4.19;48.31
70200;BME280;57587;55.688;37.600;2023-11-21T02:07:20;98968.44;;;-4.13;49.06
70200;BME280;57587;55.688;37.600;2023-11-21T02:09:47;98962.59;;;-4.17;48.34
70200;BME280;57587;55.688;37.600;2023-11-21T02:12:15;98959.03;;;-4.15;48.68
70200;BME280;57587;55.688;37.600;2023-11-21T02:14:43;98962.81;;;-4.20;48.76
70200;BME280;57587;55.688;37.600;2023-11-21T02:17:12;98959.25;;;-4.19;48.63
70200;BME280;57587;55.688;37.600;2023-11-21T02:19:40;98954.22;;;-4.22;48.83
70200;BME280;57587;55.688;37.600;2023-11-21T02:22:30;98956.31;;;-4.14;48.60
70200;BME280;57587;55.688;37.600;2023-11-21T02:24:59;98959.84;;;-4.15;47.72
70200;BME280;57587;55.688;37.600;2023-11-21T02:27:29;98961.44;;;-4.12;48.37
70200;BME280;57587;55.688;37.600;2023-11-21T02:29:57;98965.53;;;-4.08;48.14
70200;BME280;57587;55.688;37.600;2023-11-21T02:32:24;98968.56;;;-4.14;47.78
70200;BME280;57587;55.688;37.600;2023-11-21T02:34:52;98965.19;;;-4.17;48.40
70200;BME280;57587;55.688;37.600;2023-11-21T02:37:23;98964.69;;;-4.22;47.75
70200;BME280;57587;55.688;37.600;2023-11-21T02:39:50;98959.88;;;-4.28;47.29
70200;BME280;57587;55.688;37.600;2023-11-21T02:42:17;98963.75;;;-4.33;47.01
70200;BME280;57587;55.688;37.600;2023-11-21T02:44:45;98966.25;;;-4.32;47.08
70200;BME280;57587;55.688;37.600;2023-11-21T02:47:12;98957.78;;;-4.35;46.98
70200;BME280;57587;55.688;37.600;2023-11-21T02:49:39;98963.66;;;-4.32;47.17
70200;BME280;57587;55.688;37.600;2023-11-21T02:52:09;98970.03;;;-4.36;47.21
70200;BME280;57587;55.688;37.600;2023-11-21T02:54:36;98966.59;;;-4.36;47.06
70200;BME280;57587;55.688;37.600;2023-11-21T02:57:03;98981.38;;;-4.37;47.07
70200;BME280;57587;55.688;37.600;2023-11-21T02:59:31;98980.56;;;-4.50;47.08
70200;BME280;57587;55.688;37.600;2023-11-21T03:01:58;98994.56;;;-4.51;46.54
70200;BME280;57587;55.688;37.600;2023-11-21T03:04:25;98993.41;;;-4.47;46.99
70200;BME280;57587;55.688;37.600;2023-11-21T03:06:53;98980.06;;;-4.43;47.12
70200;BME280;57587;55.688;37.600;2023-11-21T03:09:20;98998.34;;;-4.43;46.74
70200;BME280;57587;55.688;37.600;2023-11-21T03:11:47;99001.25;;;-4.47;46.71
70200;BME280;57587;55.688;37.600;2023-11-21T03:14:14;98999.88;;;-4.53;46.55
70200;BME280;57587;55.688;37.600;2023-11-21T03:16:41;98998.94;;;-4.52;46.44
70200;BME280;57587;55.688;37.600;2023-11-21T03:19:09;98995.28;;;-4.49;46.58
70200;BME280;57587;55.688;37.600;2023-11-21T03:21:36;99001.16;;;-4.46;46.25
70200;BME280;57587;55.688;37.600;2023-11-21T03:24:04;98998.09;;;-4.52;46.19
70200;BME280;57587;55.688;37.600;2023-11-21T03:26:31;98999.78;;;-4.51;46.44
70200;BME280;57587;55.688;37.600;2023-11-21T03:28:58;98992.16;;;-4.54;46.50
70200;BME280;57587;55.688;37.600;2023-11-21T03:31:25;98991.94;;;-4.51;46.71
70200;BME280;57587;55.688;37.600;2023-11-21T03:33:54;98999.56;;;-4.48;46.87
70200;BME280;57587;55.688;37.600;2023-11-21T03:36:21;99010.63;;;-4.57;46.91
70200;BME280;57587;55.688;37.600;2023-11-21T03:38:48;99015.66;;;-4.54;46.92
70200;BME280;57587;55.688;37.600;2023-11-21T03:41:16;99009.81;;;-4.58;47.27
70200;BME280;57587;55.688;37.600;2023-11-21T03:43:43;99011.06;;;-4.51;47.19
70200;BME280;57587;55.688;37.600;2023-11-21T03:46:13;99019.84;;;-4.52;47.69
70200;BME280;57587;55.688;37.600;2023-11-21T03:48:42;99009.00;;;-4.46;47.00
70200;BME280;57587;55.688;37.600;2023-11-21T03:51:09;99010.09;;;-4.50;47.16
70200;BME280;57587;55.688;37.600;2023-11-21T03:53:36;99016.56;;;-4.55;47.32
70200;BME280;57587;55.688;37.600;2023-11-21T03:56:06;99013.97;;;-4.55;47.77
70200;BME280;57587;55.688;37.600;2023-11-21T03:58:33;99011.56;;;-4.58;47.47
70200;BME280;57587;55.688;37.600;2023-11-21T04:01:01;99005.72;;;-4.49;47.90
70200;BME280;57587;55.688;37.600;2023-11-21T04:03:28;99018.56;;;-4.46;47.93
70200;BME280;57587;55.688;37.600;2023-11-21T04:05:55;99018.69;;;-4.48;47.42
70200;BME280;57587;55.688;37.600;2023-11-21T04:08:22;99015.25;;;-4.48;47.68
70200;BME280;57587;55.688;37.600;2023-11-21T04:10:49;99017.84;;;-4.48;48.22
70200;BME280;57587;55.688;37.600;2023-11-21T04:13:16;99027.16;;;-4.44;47.82
70200;BME280;57587;55.688;37.600;2023-11-21T04:15:44;99015.88;;;-4.45;47.65
70200;BME280;57587;55.688;37.600;2023-11-21T04:18:11;99013.34;;;-4.46;47.77
70200;BME280;57587;55.688;37.600;2023-11-21T04:20:38;99006.16;;;-4.43;47.67
70200;BME280;57587;55.688;37.600;2023-11-21T04:23:05;99008.56;;;-4.39;47.45
70200;BME280;57587;55.688;37.600;2023-11-21T04:25:32;99012.94;;;-4.40;47.67
70200;BME280;57587;55.688;37.600;2023-11-21T04:28:00;99017.94;;;-4.37;47.61
70200;BME280;57587;55.688;37.600;2023-11-21T04:30:27;99022.97;;;-4.34;47.81
70200;BME280;57587;55.688;37.600;2023-11-21T04:32:54;99018.91;;;-4.38;48.22
70200;BME280;57587;55.688;37.600;2023-11-21T04:35:21;99016.09;;;-4.35;48.27
70200;BME280;57587;55.688;37.600;2023-11-21T04:37:48;99028.00;;;-4.31;47.49
70200;BME280;57587;55.688;37.600;2023-11-21T04:40:15;99024.47;;;-4.30;48.01
70200;BME280;57587;55.688;37.600;2023-11-21T04:42:43;99023.41;;;-4.27;47.87
70200;BME280;57587;55.688;37.600;2023-11-21T04:45:11;99032.81;;;-4.25;47.70
70200;BME280;57587;55.688;37.600;2023-11-21T04:47:40;99041.16;;;-4.32;47.74
70200;BME280;57587;55.688;37.600;2023-11-21T04:50:07;99045.75;;;-4.36;47.49
70200;BME280;57587;55.688;37.600;2023-11-21T04:52:34;99042.53;;;-4.39;48.20
70200;BME280;57587;55.688;37.600;2023-11-21T04:55:02;99038.00;;;-4.50;47.91
70200;BME280;57587;55.688;37.600;2023-11-21T04:57:31;99038.63;;;-4.47;48.42
70200;BME280;57587;55.688;37.600;2023-11-21T04:59:58;99047.94;;;-4.43;48.00
70200;BME280;57587;55.688;37.600;2023-11-21T05:02:25;99039.88;;;-4.52;48.06
70200;BME280;57587;55.688;37.600;2023-11-21T05:05:02;99048.88;;;-4.44;48.28
70200;BME280;57587;55.688;37.600;2023-11-21T05:07:30;99049.50;;;-4.40;47.95
70200;BME280;57587;55.688;37.600;2023-11-21T05:09:58;99050.09;;;-4.49;48.62
70200;BME280;57587;55.688;37.600;2023-11-21T05:12:26;99053.38;;;-4.46;48.00
70200;BME280;57587;55.688;37.600;2023-11-21T05:14:53;99059.84;;;-4.51;48.42
70200;BME280;57587;55.688;37.600;2023-11-21T05:17:21;99064.91;;;-4.63;48.63
70200;BME280;57587;55.688;37.600;2023-11-21T05:19:49;99056.13;;;-4.61;48.45
70200;BME280;57587;55.688;37.600;2023-11-21T05:22:16;99058.22;;;-4.67;48.31
70200;BME280;57587;55.688;37.600;2023-11-21T05:24:43;99057.19;;;-4.64;49.25
70200;BME280;57587;55.688;37.600;2023-11-21T05:27:11;99057.00;;;-4.61;48.65
70200;BME280;57587;55.688;37.600;2023-11-21T05:29:38;99059.84;;;-4.51;48.86
70200;BME280;57587;55.688;37.600;2023-11-21T05:32:05;99063.28;;;-4.51;48.64
70200;BME280;57587;55.688;37.600;2023-11-21T05:34:33;99055.34;;;-4.49;48.80
70200;BME280;57587;55.688;37.600;2023-11-21T05:37:00;99041.34;;;-4.48;48.72
70200;BME280;57587;55.688;37.600;2023-11-21T05:39:27;99043.03;;;-4.47;48.37
70200;BME280;57587;55.688;37.600;2023-11-21T05:41:54;99046.19;;;-4.42;48.61
70200;BME280;57587;55.688;37.600;2023-11-21T05:44:22;99048.88;;;-4.44;48.82
70200;BME280;57587;55.688;37.600;2023-11-21T05:46:50;99055.59;;;-4.39;48.87
70200;BME280;57587;55.688;37.600;2023-11-21T05:49:17;99059.44;;;-4.45;49.03
70200;BME280;57587;55.688;37.600;2023-11-21T05:51:48;99069.03;;;-4.46;48.69
70200;BME280;57587;55.688;37.600;2023-11-21T05:54:15;99063.72;;;-4.44;48.51
70200;BME280;57587;55.688;37.600;2023-11-21T05:56:43;99070.69;;;-4.57;49.42
70200;BME280;57587;55.688;37.600;2023-11-21T05:59:11;99062.84;;;-4.57;49.75
70200;BME280;57587;55.688;37.600;2023-11-21T06:01:38;99068.69;;;-4.54;49.63
70200;BME280;57587;55.688;37.600;2023-11-21T06:04:05;99066.53;;;-4.47;50.22
70200;BME280;57587;55.688;37.600;2023-11-21T06:06:35;99074.56;;;-4.50;49.98
70200;BME280;57587;55.688;37.600;2023-11-21T06:09:02;99075.38;;;-4.50;50.88
70200;BME280;57587;55.688;37.600;2023-11-21T06:11:30;99083.13;;;-4.48;51.06
70200;BME280;57587;55.688;37.600;2023-11-21T06:13:57;99091.88;;;-4.49;50.51
70200;BME280;57587;55.688;37.600;2023-11-21T06:16:25;99096.38;;;-4.51;50.82
70200;BME280;57587;55.688;37.600;2023-11-21T06:18:52;99094.09;;;-4.43;51.15
70200;BME280;57587;55.688;37.600;2023-11-21T06:21:19;99099.88;;;-4.38;50.73
70200;BME280;57587;55.688;37.600;2023-11-21T06:23:46;99086.38;;;-4.45;50.33
70200;BME280;57587;55.688;37.600;2023-11-21T06:26:18;99091.88;;;-4.49;50.34
70200;BME280;57587;55.688;37.600;2023-11-21T06:28:45;99097.44;;;-4.41;51.43
70200;BME280;57587;55.688;37.600;2023-11-21T06:31:13;99097.38;;;-4.27;51.00
70200;BME280;57587;55.688;37.600;2023-11-21T06:33:41;99088.06;;;-4.18;50.43
70200;BME280;57587;55.688;37.600;2023-11-21T06:36:08;99098.03;;;-4.10;50.32
70200;BME280;57587;55.688;37.600;2023-11-21T06:38:38;99085.25;;;-4.15;49.30
70200;BME280;57587;55.688;37.600;2023-11-21T06:41:05;99098.31;;;-4.15;48.83
70200;BME280;57587;55.688;37.600;2023-11-21T06:43:33;99093.22;;;-4.17;48.22
70200;BME280;57587;55.688;37.600;2023-11-21T06:46:00;99104.72;;;-4.19;48.52
70200;BME280;57587;55.688;37.600;2023-11-21T06:48:27;99098.44;;;-4.17;48.34
70200;BME280;57587;55.688;37.600;2023-11-21T06:50:54;99095.84;;;-4.17;48.11
70200;BME280;57587;55.688;37.600;2023-11-21T06:53:22;99103.81;;;-4.05;48.40
70200;BME280;57587;55.688;37.600;2023-11-21T06:55:49;99094.06;;;-4.03;48.26
70200;BME280;57587;55.688;37.600;2023-11-21T06:58:16;99096.47;;;-4.00;47.76
70200;BME280;57587;55.688;37.600;2023-11-21T07:00:43;99096.47;;;-4.00;48.66
70200;BME280;57587;55.688;37.600;2023-11-21T07:03:13;99094.94;;;-3.90;49.46
70200;BME280;57587;55.688;37.600;2023-11-21T07:05:41;99076.72;;;-3.79;48.29
70200;BME280;57587;55.688;37.600;2023-11-21T07:08:09;99099.94;;;-3.87;48.25
70200;BME280;57587;55.688;37.600;2023-11-21T07:10:36;99093.03;;;-3.88;48.56
70200;BME280;57587;55.688;37.600;2023-11-21T07:13:05;99090.31;;;-3.74;48.32
70200;BME280;57587;55.688;37.600;2023-11-21T07:15:32;99093.88;;;-3.75;46.93
70200;BME280;57587;55.688;37.600;2023-11-21T07:17:59;99096.56;;;-3.63;47.28
70200;BME280;57587;55.688;37.600;2023-11-21T07:20:27;99104.75;;;-3.55;47.93
70200;BME280;57587;55.688;37.600;2023-11-21T07:22:54;99108.06;;;-3.53;47.14
70200;BME280;57587;55.688;37.600;2023-11-21T07:25:22;99102.41;;;-3.47;46.60
70200;BME280;57587;55.688;37.600;2023-11-21T07:27:50;99109.13;;;-3.43;46.58
70200;BME280;57587;55.688;37.600;2023-11-21T07:30:17;99105.75;;;-3.45;46.41
70200;BME280;57587;55.688;37.600;2023-11-21T07:32:44;99102.53;;;-3.49;46.11
70200;BME280;57587;55.688;37.600;2023-11-21T07:35:12;99097.50;;;-3.52;46.44
70200;BME280;57587;55.688;37.600;2023-11-21T07:37:39;99106.81;;;-3.60;45.90
70200;BME280;57587;55.688;37.600;2023-11-21T07:40:06;99105.56;;;-3.55;46.33
70200;BME280;57587;55.688;37.600;2023-11-21T07:42:36;99103.38;;;-3.48;46.70
70200;BME280;57587;55.688;37.600;2023-11-21T07:45:05;99110.16;;;-3.45;46.99
70200;BME280;57587;55.688;37.600;2023-11-21T07:47:34;99100.22;;;-3.53;46.12
70200;BME280;57587;55.688;37.600;2023-11-21T07:50:03;99106.72;;;-3.46;46.76
70200;BME280;57587;55.688;37.600;2023-11-21T07:52:31;99107.34;;;-3.42;46.60
70200;BME280;57587;55.688;37.600;2023-11-21T07:54:58;99109.31;;;-3.33;46.54
70200;BME280;57587;55.688;37.600;2023-11-21T07:57:26;99107.66;;;-3.34;45.72
70200;BME280;57587;55.688;37.600;2023-11-21T07:59:53;99097.69;;;-3.29;45.45
70200;BME280;57587;55.688;37.600;2023-11-21T08:02:23;99093.72;;;-3.22;45.80
70200;BME280;57587;55.688;37.600;2023-11-21T08:04:50;99092.28;;;-3.02;45.35
70200;BME280;57587;55.688;37.600;2023-11-21T08:07:18;99091.56;;;-2.80;44.99
70200;BME280;57587;55.688;37.600;2023-11-21T08:09:45;99091.50;;;-2.91;45.21
70200;BME280;57587;55.688;37.600;2023-11-21T08:12:13;99092.97;;;-2.87;44.57
70200;BME280;57587;55.688;37.600;2023-11-21T08:14:41;99084.50;;;-2.91;44.25
70200;BME280;57587;55.688;37.600;2023-11-21T08:17:10;99097.28;;;-2.99;44.99
70200;BME280;57587;55.688;37.600;2023-11-21T08:19:37;99102.22;;;-3.07;45.44
70200;BME280;57587;55.688;37.600;2023-11-21T08:22:04;99095.63;;;-3.00;45.56
70200;BME280;57587;55.688;37.600;2023-11-21T08:24:34;99089.53;;;-3.01;45.10
70200;BME280;57587;55.688;37.600;2023-11-21T08:27:01;99090.63;;;-3.03;45.81
70200;BME280;57587;55.688;37.600;2023-11-21T08:29:28;99087.88;;;-3.02;45.77
70200;BME280;57587;55.688;37.600;2023-11-21T08:31:56;99087.34;;;-3.07;45.54
70200;BME280;57587;55.688;37.600;2023-11-21T08:34:24;99080.91;;;-3.14;46.42
70200;BME280;57587;55.688;37.600;2023-11-21T08:36:51;99087.19;;;-3.16;46.29
70200;BME280;57587;55.688;37.600;2023-11-21T08:39:18;99083.34;;;-3.23;45.62
70200;BME280;57587;55.688;37.600;2023-11-21T08:41:46;99088.34;;;-3.20;46.27
70200;BME280;57587;55.688;37.600;2023-11-21T08:44:13;99087.31;;;-3.18;46.17
70200;BME280;57587;55.688;37.600;2023-11-21T08:46:40;99079.03;;;-3.12;46.37
70200;BME280;57587;55.688;37.600;2023-11-21T08:49:08;99078.91;;;-3.10;45.16
70200;BME280;57587;55.688;37.600;2023-11-21T08:51:35;99080.84;;;-3.01;45.40
70200;BME280;57587;55.688;37.600;2023-11-21T08:54:03;99080.84;;;-3.01;44.66
70200;BME280;57587;55.688;37.600;2023-11-21T08:56:31;99084.53;;;-3.04;44.72
70200;BME280;57587;55.688;37.600;2023-11-21T08:58:58;99085.16;;;-3.00;45.59
70200;BME280;57587;55.688;37.600;2023-11-21T09:01:29;99094.97;;;-2.91;45.01
70200;BME280;57587;55.688;37.600;2023-11-21T09:03:58;99090.22;;;-2.86;44.01
70200;BME280;57587;55.688;37.600;2023-11-21T09:06:25;99110.84;;;-2.81;44.08
70200;BME280;57587;55.688;37.600;2023-11-21T09:08:52;99099.56;;;-2.94;43.41
70200;BME280;57587;55.688;37.600;2023-11-21T09:11:20;99101.34;;;-2.95;44.05
70200;BME280;57587;55.688;37.600;2023-11-21T09:13:47;99107.53;;;-2.96;43.63
70200;BME280;57587;55.688;37.600;2023-11-21T09:16:14;99104.19;;;-2.98;44.63
70200;BME280;57587;55.688;37.600;2023-11-21T09:18:43;99113.00;;;-2.99;45.19
70200;BME280;57587;55.688;37.600;2023-11-21T09:21:10;99102.22;;;-3.07;44.55
70200;BME280;57587;55.688;37.600;2023-11-21T09:23:37;99111.25;;;-3.11;45.16
70200;BME280;57587;55.688;37.600;2023-11-21T09:26:04;99108.41;;;-3.08;45.62
70200;BME280;57587;55.688;37.600;2023-11-21T09:28:32;99108.63;;;-3.11;45.35
70200;BME280;57587;55.688;37.600;2023-11-21T09:30:59;99108.50;;;-3.10;45.44
70200;BME280;57587;55.688;37.600;2023-11-21T09:33:28;99108.50;;;-3.10;45.26
70200;BME280;57587;55.688;37.600;2023-11-21T09:35:57;99110.19;;;-3.09;45.45
70200;BME280;57587;55.688;37.600;2023-11-21T09:38:24;99111.78;;;-3.06;45.50
70200;BME280;57587;55.688;37.600;2023-11-21T09:40:51;99109.03;;;-3.05;45.71
70200;BME280;57587;55.688;37.600;2023-11-21T09:43:20;99113.44;;;-3.05;45.66
70200;BME280;57587;55.688;37.600;2023-11-21T09:46:01;99114.19;;;-3.03;45.64
70200;BME280;57587;55.688;37.600;2023-11-21T09:51:56;99120.03;;;-2.99;45.53
70200;BME280;57587;55.688;37.600;2023-11-21T09:54:24;99118.06;;;-3.09;46.03
70200;BME280;57587;55.688;37.600;2023-11-21T09:56:52;99122.25;;;-3.06;46.33
70200;BME280;57587;55.688;37.600;2023-11-21T09:59:19;99122.94;;;-3.04;46.33
70200;BME280;57587;55.688;37.600;2023-11-21T10:01:47;99122.25;;;-3.06;46.04
70200;BME280;57587;55.688;37.600;2023-11-21T10:04:15;99125.28;;;-3.12;45.85
70200;BME280;57587;55.688;37.600;2023-11-21T10:06:43;99125.50;;;-3.15;46.11
70200;BME280;57587;55.688;37.600;2023-11-21T10:09:14;99130.75;;;-3.15;46.07
70200;BME280;57587;55.688;37.600;2023-11-21T10:11:42;99131.44;;;-3.13;46.74
70200;BME280;57587;55.688;37.600;2023-11-21T10:14:11;99131.34;;;-3.12;46.50
70200;BME280;57587;55.688;37.600;2023-11-21T10:16:44;99132.72;;;-3.06;47.26
70200;BME280;57587;55.688;37.600;2023-11-21T10:19:12;99129.13;;;-3.05;47.49
70200;BME280;57587;55.688;37.600;2023-11-21T10:21:43;99131.03;;;-3.07;47.13
70200;BME280;57587;55.688;37.600;2023-11-21T10:24:10;99134.81;;;-3.11;46.56
70200;BME280;57587;55.688;37.600;2023-11-21T10:26:39;99129.97;;;-3.05;46.27
70200;BME280;57587;55.688;37.600;2023-11-21T10:29:19;99129.34;;;-3.08;45.89
70200;BME280;57587;55.688;37.600;2023-11-21T10:31:52;99131.97;;;-3.08;46.35
70200;BME280;57587;55.688;37.600;2023-11-21T10:34:22;99123.91;;;-3.05;46.47
70200;BME280;57587;55.688;37.600;2023-11-21T10:36:49;99126.63;;;-3.07;45.94
70200;BME280;57587;55.688;37.600;2023-11-21T10:39:17;99117.00;;;-3.06;45.77
70200;BME280;57587;55.688;37.600;2023-11-21T10:41:47;99125.78;;;-3.07;45.85
70200;BME280;57587;55.688;37.600;2023-11-21T10:44:16;99126.22;;;-3.13;46.18
70200;BME280;57587;55.688;37.600;2023-11-21T10:46:54;99127.69;;;-3.09;45.91
70200;BME280;57587;55.688;37.600;2023-11-21T10:49:27;99115.94;;;-3.04;45.56
70200;BME280;57587;55.688;37.600;2023-11-21T10:51:55;99132.91;;;-2.96;46.02
70200;BME280;57587;55.688;37.600;2023-11-21T10:54:30;99129.00;;;-2.91;46.26
70200;BME280;57587;55.688;37.600;2023-11-21T10:57:00;99121.59;;;-2.97;45.49
70200;BME280;57587;55.688;37.600;2023-11-21T10:59:30;99132.50;;;-3.03;45.75
70200;BME280;57587;55.688;37.600;2023-11-21T11:01:58;99133.53;;;-3.06;45.66
70200;BME280;57587;55.688;37.600;2023-11-21T11:04:28;99136.47;;;-3.10;46.46
70200;BME280;57587;55.688;37.600;2023-11-21T11:06:57;99126.22;;;-3.13;46.59
70200;BME280;57587;55.688;37.600;2023-11-21T11:09:30;99122.84;;;-3.03;46.24
70200;BME280;57587;55.688;37.600;2023-11-21T11:12:04;99126.38;;;-2.91;46.12
70200;BME280;57587;55.688;37.600;2023-11-21T11:14:34;99127.84;;;-2.87;45.71
70200;BME280;57587;55.688;37.600;2023-11-21T11:17:01;99128.34;;;-2.82;45.88
70200;BME280;57587;55.688;37.600;2023-11-21T11:19:29;99128.06;;;-2.90;45.06
70200;BME280;57587;55.688;37.600;2023-11-21T11:24:39;99130.28;;;-2.96;46.14
70200;BME280;57587;55.688;37.600;2023-11-21T11:27:20;99138.56;;;-3.03;46.51
70200;BME280;57587;55.688;37.600;2023-11-21T11:38:09;99141.56;;;-2.96;47.61
70200;BME280;57587;55.688;37.600;2023-11-21T11:40:41;99153.22;;;-3.00;47.84
70200;BME280;57587;55.688;37.600;2023-11-21T11:43:09;99156.97;;;-3.04;47.48
70200;BME280;57587;55.688;37.600;2023-11-21T11:45:37;99159.59;;;-3.04;47.57
70200;BME280;57587;55.688;37.600;2023-11-21T11:48:11;99144.09;;;-3.07;47.28
70200;BME280;57587;55.688;37.600;2023-11-21T11:51:14;99150.94;;;-3.17;46.78
70200;BME280;57587;55.688;37.600;2023-11-21T11:53:45;99148.84;;;-3.12;47.01
70200;BME280;57587;55.688;37.600;2023-11-21T11:56:33;99153.13;;;-3.11;46.59
70200;BME280;57587;55.688;37.600;2023-11-21T11:59:03;99151.97;;;-3.07;47.17
70200;BME280;57587;55.688;37.600;2023-11-21T12:01:33;99150.50;;;-3.11;46.75
70200;BME280;57587;55.688;37.600;2023-11-21T12:07:00;99168.19;;;-3.02;46.98
70200;BME280;57587;55.688;37.600;2023-11-21T12:09:31;99167.78;;;-3.09;47.20
70200;BME280;57587;55.688;37.600;2023-11-21T12:11:59;99167.66;;;-3.07;46.87
70200;BME280;57587;55.688;37.600;2023-11-21T12:14:27;99177.28;;;-3.08;46.59
70200;BME280;57587;55.688;37.600;2023-11-21T12:16:55;99162.63;;;-3.10;46.35
70200;BME280;57587;55.688;37.600;2023-11-21T12:19:23;99166.94;;;-3.09;46.09
70200;BME280;57587;55.688;37.600;2023-11-21T12:21:50;99164.16;;;-3.19;46.55
70200;BME280;57587;55.688;37.600;2023-11-21T12:24:19;99163.81;;;-3.14;46.86
70200;BME280;57587;55.688;37.600;2023-11-21T12:26:46;99170.63;;;-3.12;46.76
70200;BME280;57587;55.688;37.600;2023-11-21T12:29:13;99170.41;;;-3.21;47.49
70200;BME280;57587;55.688;37.600;2023-11-21T12:31:40;99177.31;;;-3.20;47.09
70200;BME280;57587;55.688;37.600;2023-11-21T12:34:08;99177.53;;;-3.23;47.22
70200;BME280;57587;55.688;37.600;2023-11-21T12:36:38;99180.88;;;-3.21;46.78
70200;BME280;57587;55.688;37.600;2023-11-21T12:39:06;99181.09;;;-3.25;47.04
70200;BME280;57587;55.688;37.600;2023-11-21T12:41:36;99188.00;;;-3.23;46.74
70200;BME280;57587;55.688;37.600;2023-11-21T12:44:11;99186.75;;;-3.31;46.91
70200;BME280;57587;55.688;37.600;2023-11-21T12:46:42;99181.09;;;-3.25;47.18
70200;BME280;57587;55.688;37.600;2023-11-21T12:49:11;99171.47;;;-3.24;46.91
70200;BME280;57587;55.688;37.600;2023-11-21T12:51:46;99186.34;;;-3.25;47.05
70200;BME280;57587;55.688;37.600;2023-11-21T12:54:14;99189.25;;;-3.29;46.65
70200;BME280;57587;55.688;37.600;2023-11-21T12:56:45;99186.53;;;-3.28;46.91
70200;BME280;57587;55.688;37.600;2023-11-21T12:59:14;99186.13;;;-3.34;47.87
70200;BME280;57587;55.688;37.600;2023-11-21T13:01:43;99180.69;;;-3.31;48.28
70200;BME280;57587;55.688;37.600;2023-11-21T13:04:10;99184.97;;;-3.30;47.27
70200;BME280;57587;55.688;37.600;2023-11-21T13:06:38;99187.78;;;-3.33;47.10
70200;BME280;57587;55.688;37.600;2023-11-21T13:09:11;99198.06;;;-3.43;47.68
70200;BME280;57587;55.688;37.600;2023-11-21T13:11:38;99195.31;;;-3.41;48.13
70200;BME280;57587;55.688;37.600;2023-11-21T13:14:07;99207.91;;;-3.46;47.86